Weather observations for the past three days for
Novato / Gnoss Field
Metric (Imperial)
Date Time (pdt) Wind (kph) Vis. (km) Weather Sky Cond. Temperature (ºC) Relative Humidity Wind Chill (°C) Heat Index (°C) Pressure Precipitation (cm)
Air Dwpt 6 hour altimeter (cm) sea level (mb) 1 hr 3 hr 6 hr
Max. Min.
03 16:55 SW 22 16.09 Overcast FEW040 OVC049 19 10 56% 75.92 0.0
03 16:35 W 22 16.09 Overcast SCT040 OVC049 18 10 60% 75.92 0.0
03 16:15 W 15 16.09 Overcast OVC039 18 10 60% 75.92 0.0
03 15:55 W 19 16.09 Overcast OVC037 18 10 60% 75.92 0.0
03 15:35 W 15 16.09 Overcast OVC036 18 10 60% 75.92 0.0
03 15:15 W 17 16.09 Overcast OVC036 18 10 60% 75.95 0.0
03 14:55 W 13 16.09 Overcast OVC037 18 10 60% 75.95 0.0
03 14:35 SW 15 16.09 Overcast OVC040 18 10 60% 75.95 0.0
03 14:15 W 11 G 22 16.09 Overcast BKN036 OVC042 18 10 60% 75.95 0.0
03 13:55 Vrbl 7 G 20 16.09 Overcast OVC040 18 9 56% 75.95 0.0
03 13:35 SW 17 G 28 16.09 Overcast OVC041 18 10 60% 75.95 0.0
03 13:15 W 13 G 24 16.09 Overcast OVC041 18 10 60% 75.95 0.0
03 12:55 W 13 G 24 16.09 Overcast OVC038 18 9 56% 75.97 0.0
03 12:35 NW 11 16.09 Overcast OVC036 17 10 64% 75.97 0.0
03 12:15 W 11 G 20 16.09 Overcast OVC036 17 10 64% 76 0.0
03 11:55 W 7 16.09 Overcast OVC038 17 9 60% 75.97 0.0
03 11:35 W 13 G 24 16.09 Overcast OVC035 17 9 60% 75.97 0.0
03 11:15 SW 19 16.09 Overcast OVC034 17 9 60% 75.97 0.0
03 10:55 W 13 G 24 16.09 Overcast OVC034 16 9 63% 75.97 0.0
03 10:35 Vrbl 11 16.09 Overcast OVC034 16 10 68% 75.97 0.0
03 10:15 SW 13 16.09 Overcast OVC034 15 10 72% 75.97 0.0
03 09:55 SW 13 16.09 Overcast OVC032 15 10 72% 75.97 0.0
03 09:35 SW 19 16.09 Overcast OVC027 14 10 77% 75.97 0.0
03 09:15 SW 13 16.09 Overcast OVC029 14 10 77% 75.97 0.0
03 08:55 SW 11 16.09 Overcast OVC029 14 10 77% 75.97 0.0
03 08:35 SW 17 16.09 Overcast FEW022 OVC029 14 10 77% 75.95 0.0
03 08:15 SW 9 16.09 Overcast OVC030 14 10 77% 75.95 0.0
03 07:55 SW 7 16.09 Overcast FEW021 OVC029 13 10 82% 75.92 0.0
03 07:35 Vrbl 6 G 20 16.09 Overcast BKN019 OVC023 13 10 82% 75.92 0.0
03 07:15 SW 11 16.09 Overcast OVC021 13 10 82% 75.9 0.0
03 06:55 SW 9 16.09 Overcast OVC021 13 10 82% 75.87 0.0
03 06:35 SW 9 16.09 Overcast BKN019 OVC024 13 10 82% 75.87 0.0
03 06:15 SW 7 16.09 Overcast OVC019 13 10 82% 75.82 0.0
03 05:35 Calm 16.09 Overcast OVC020 13 10 82% 75.82 0.0
03 05:15 SW 9 16.09 Overcast OVC018 13 10 82% 75.82 0.0
03 04:55 SW 11 16.09 Overcast OVC018 13 10 82% 75.82 0.0
03 04:35 SW 13 16.09 Overcast OVC018 13 10 82% 75.82 0.0
03 04:15 SW 9 16.09 Overcast OVC018 13 10 82% 75.82 0.0
03 03:35 Calm 16.09 Overcast OVC017 13 10 82% 75.82 0.0
03 03:15 Calm 16.09 Overcast OVC017 13 10 82% 75.82 0.0
03 02:55 SW 6 16.09 Overcast OVC017 13 10 82% 75.82 0.0
03 02:35 Calm 16.09 Overcast OVC017 13 10 82% 75.82 0.0
03 02:15 Calm 16.09 Overcast OVC017 13 10 82% 75.84 0.0
03 01:55 SW 9 16.09 Overcast OVC017 13 10 82% 75.84 0.0
03 01:15 Calm 16.09 Overcast OVC017 13 10 82% 75.87 0.0
03 00:55 W 7 16.09 Overcast OVC019 13 10 82% 75.87 0.0
03 00:35 Calm 16.09 Overcast OVC018 13 10 82% 75.9 0.0
03 00:15 Calm 16.09 Overcast OVC018 13 10 82% 75.9 0.0
02 23:55 Calm 16.09 Overcast OVC018 13 10 82% 75.9 0.0
02 23:35 Calm 16.09 Mostly Cloudy BKN018 12 10 88% 75.9 0.0
02 23:15 Calm 16.09 Overcast OVC017 13 10 82% 75.9 0.0
02 22:55 SW 9 16.09 Overcast OVC016 13 10 82% 75.9 0.0
02 22:35 Vrbl 7 16.09 Overcast OVC018 13 10 82% 75.92 0.0
02 22:15 Calm 16.09 Overcast OVC016 13 10 82% 75.92 0.0
02 21:55 NW 9 16.09 Overcast OVC016 13 10 82% 75.92 0.0
02 21:15 W 7 16.09 Overcast OVC015 13 10 82% 75.92 0.0
02 20:55 Vrbl 7 16.09 Overcast OVC016 13 10 82% 75.9 0.0
02 20:35 Vrbl 9 G 24 16.09 Overcast OVC015 13 10 82% 75.87 0.0
02 20:15 NW 9 16.09 Overcast OVC015 13 10 82% 75.87 0.0
02 19:55 NW 13 G 26 16.09 Overcast BKN016 OVC021 13 10 82% 75.84 0.0
02 19:35 NW 17 16.09 Overcast OVC016 13 10 82% 75.87 0.0
02 19:15 NW 17 16.09 Overcast BKN018 OVC022 14 10 77% 75.87 0.0
02 18:55 W 13 16.09 Overcast OVC021 14 10 77% 75.87 0.0
02 18:35 W 13 16.09 Mostly Cloudy BKN021 14 10 77% 75.87 0.0
02 18:15 SW 19 16.09 A Few Clouds FEW021 15 10 72% 75.87 0.0
02 17:55 W 22 16.09 Fair CLR 15 10 72% 75.87 0.0
02 17:35 SW 26 16.09 Fair CLR 16 10 68% 75.87 0.0
02 17:15 SW 26 16.09 Fair CLR 16 10 68% 75.87 0.0
02 16:55 SW 28 16.09 Fair CLR 17 10 64% 75.87 0.0
02 16:35 W 24 16.09 Fair CLR 17 10 64% 75.87 0.0
02 16:15 SW 24 16.09 Fair CLR 17 10 64% 75.87 0.0
02 15:55 SW 20 G 31 16.09 Partly Cloudy SCT026 17 11 68% 75.9 0.0
02 15:35 W 24 16.09 Overcast OVC025 18 11 64% 75.92 0.0
02 15:15 SW 20 G 30 16.09 Overcast OVC024 18 11 64% 75.95 0.0
02 14:55 SW 20 G 31 16.09 Overcast OVC023 17 11 68% 75.95 0.0
02 14:35 SW 24 16.09 Overcast OVC022 17 12 73% 75.95 0.0
02 14:15 SW 22 16.09 Overcast OVC021 17 12 73% 75.97 0.0
02 13:55 SW 24 16.09 Overcast OVC020 16 12 77% 75.97 0.0
02 13:35 SW 22 16.09 Overcast OVC019 16 12 77% 75.97 0.0
02 13:15 SW 20 16.09 Overcast OVC019 17 13 77% 76 0.0
02 12:55 Vrbl 9 G 22 16.09 Overcast OVC022 18 13 73% 76 0.0
02 12:35 Vrbl 7 16.09 Overcast OVC022 18 12 68% 76 0.0
02 12:15 Vrbl 7 G 19 16.09 Overcast OVC021 17 12 73% 76 0.0
02 11:55 NE 7 16.09 Overcast OVC021 18 13 73% 76.02 0.0
02 11:35 Calm 16.09 Overcast OVC020 18 12 68% 76 0.0
02 11:15 Calm 16.09 Overcast OVC019 18 12 68% 76.02 0.0
02 10:55 Vrbl 6 16.09 Overcast OVC020 18 12 68% 76 0.0
02 10:35 Vrbl 7 16.09 Overcast OVC019 16 11 72% 76.02 0.0
02 10:15 SE 9 16.09 Overcast OVC016 15 11 77% 76 0.0
02 09:55 Vrbl 7 16.09 Overcast OVC016 14 11 82% 76.02 0.0
02 09:35 W 7 16.09 Overcast OVC014 14 11 82% 76.02 0.0
02 09:15 Calm 16.09 Overcast OVC013 13 11 88% 76 0.0
02 08:55 S 7 16.09 Overcast OVC012 13 11 88% 76 0.0
02 08:35 SW 9 16.09 Overcast OVC011 13 11 88% 76 0.0
02 08:15 SW 7 16.09 Overcast OVC011 13 11 88% 75.97 0.0
02 07:55 Calm 16.09 Overcast OVC010 13 11 88% 75.97 0.0
02 07:35 Calm 16.09 Overcast OVC011 13 11 88% 75.97 0.0
02 07:15 Calm 16.09 Overcast OVC011 13 11 88% 75.95 0.0
02 06:55 Calm 16.09 Overcast OVC011 12 11 94% 75.95 0.0
02 06:35 Calm 16.09 Overcast OVC011 12 11 94% 75.92 0.0
02 06:15 Calm 16.09 Overcast OVC012 12 11 94% 75.92 0.0
02 05:55 Calm 16.09 Overcast OVC012 12 11 94% 75.92 0.0
02 05:35 Calm 16.09 Overcast OVC012 12 11 94% 75.92 0.0
02 05:15 Calm 16.09 Overcast OVC010 12 11 94% 75.9 0.0
02 04:55 N 6 16.09 Overcast OVC010 12 11 94% 75.92 0.0
02 04:35 Calm 16.09 Overcast OVC010 12 11 94% 75.92 0.0
02 04:15 Calm 16.09 Overcast OVC009 12 11 94% 75.92 0.0
02 03:55 Calm 16.09 Overcast OVC010 12 11 94% 75.92 0.0
02 03:35 S 7 16.09 Overcast OVC010 12 11 94% 75.92 0.0
02 03:15 Calm 16.09 Overcast OVC011 11 11 100% 75.92 0.0
02 02:55 Calm 16.09 Partly Cloudy SCT011 10 10 100% 75.95 0.0
02 02:35 Calm 16.09 A Few Clouds FEW012 11 11 100% 75.95 0.0
02 02:15 Calm 14.48 Partly Cloudy SCT012 11 11 100% 75.97 0.0
02 01:55 Calm 9.66 Fog/Mist FEW003 FEW010 11 11 100% 75.97 0.0
02 01:35 Calm 14.48 Fair CLR 11 10 94% 75.97 0.0
02 01:15 Calm 16.09 A Few Clouds FEW008 11 10 94% 75.97 0.0
02 00:55 Calm 16.09 Mostly Cloudy BKN008 11 10 94% 75.97 0.0
02 00:15 E 7 16.09 Fair CLR 11 11 100% 75.97 0.0
01 23:55 E 7 16.09 Fair CLR 11 11 100% 75.97 0.0
01 23:35 NE 11 14.48 Fair CLR 11 11 100% 76 0.0
01 23:15 E 7 16.09 Fair CLR 11 11 100% 75.97 0.0
01 22:55 NE 7 16.09 Fair CLR 12 11 94% 76 0.0
01 22:35 Calm 16.09 Fair CLR 12 11 94% 76 0.0
01 22:15 Calm 16.09 Fair CLR 12 11 94% 76 0.0
01 21:55 N 6 16.09 Fair CLR 12 11 94% 76 0.0
01 21:35 Calm 16.09 Fair CLR 13 12 94% 75.97 0.0
01 21:15 Calm 16.09 Fair CLR 13 11 88% 75.97 0.0
01 20:55 NE 11 16.09 Fair CLR 13 12 94% 75.95 0.0
01 20:35 E 9 16.09 Fair CLR 13 11 88% 75.95 0.0
01 20:15 E 7 16.09 Fair CLR 14 11 82% 75.92 0.0
01 19:55 E 6 16.09 Fair CLR 15 11 77% 75.92 0.0
01 19:35 Vrbl 6 16.09 Fair CLR 16 11 72% 75.9 0.0
01 19:15 N 7 16.09 Fair CLR 18 12 68% 75.9 0.0
01 18:55 Vrbl 7 16.09 Fair CLR 19 12 64% 75.9 0.0
01 18:35 N 15 16.09 Fair CLR 19 13 68% 75.9 0.0
01 18:15 SW 17 16.09 Fair CLR 21 13 60% 75.87 0.0
01 17:55 Vrbl 11 16.09 Fair CLR 22 14 61% 75.9 0.0
01 17:35 S 13 16.09 Fair CLR 22 14 61% 75.87 0.0
01 17:15 Vrbl 7 16.09 Fair CLR 23 15 61% 75.9 0.0
01 16:55 E 7 16.09 Fair CLR 23 15 61% 75.9 0.0
01 16:35 NE 13 16.09 Fair CLR 23 16 65% 75.92 0.0
01 16:15 NE 7 G 19 16.09 Fair CLR 23 16 65% 75.92 0.0
01 15:55 Vrbl 7 16.09 Fair CLR 22 15 65% 75.95 0.0
01 15:35 Vrbl 9 16.09 Fair CLR 22 15 65% 75.97 0.0
01 15:15 SE 13 16.09 Fair CLR 22 14 61% 76 0.0
01 14:55 E 15 16.09 Fair CLR 22 14 61% 76.02 0.0
01 14:35 SE 15 16.09 Fair CLR 22 14 61% 76.02 0.0
01 14:15 SE 11 16.09 Fair CLR 21 14 64% 76.05 0.0
01 13:35 E 11 16.09 Fair CLR 20 14 69% 76.05 0.0
01 13:15 E 7 16.09 Fair CLR 21 14 64% 76.07 0.0
01 12:55 E 13 16.09 Fair CLR 20 14 69% 76.1 0.0
01 12:35 Vrbl 9 16.09 Fair CLR 19 14 73% 76.1 0.0
01 12:15 Calm 16.09 Fair CLR 19 13 68% 76.12 0.0
01 11:55 Calm 16.09 A Few Clouds FEW013 18 13 73% 76.15 0.0
01 11:35 N 7 16.09 Mostly Cloudy BKN013 18 13 73% 76.15 0.0
01 11:15 Calm 16.09 Overcast OVC012 16 12 77% 76.17 0.0
01 10:55 NE 9 16.09 Overcast OVC009 15 12 82% 76.17 0.0
01 10:35 Calm 16.09 Overcast OVC008 14 12 88% 76.17 0.0
01 10:15 Calm 16.09 Overcast OVC008 14 12 88% 76.15 0.0
01 09:55 Vrbl 7 14.48 Overcast OVC007 13 11 88% 76.17 0.0
01 09:35 N 6 9.66 Fog/Mist OVC007 13 11 88% 76.17 0.0
01 09:15 Calm 14.48 Overcast OVC006 13 11 88% 76.15 0.0
01 08:55 Calm 14.48 Overcast OVC006 12 11 94% 76.15 0.0
01 08:35 Calm 14.48 Overcast OVC006 12 11 94% 76.15 0.0
01 08:15 Calm 14.48 Overcast OVC006 12 11 94% 76.12 0.0
01 07:55 Calm 14.48 Overcast OVC006 12 11 94% 76.12 0.0
01 07:35 Calm 14.48 Overcast OVC006 11 11 100% 76.12 0.0
01 07:15 Calm 12.87 Overcast OVC006 11 11 100% 76.1 0.0
01 06:55 Calm 12.87 Overcast OVC006 11 11 100% 76.07 0.0
01 06:35 Calm 11.27 Overcast OVC007 11 11 100% 76.07 0.0
01 06:15 Calm 12.87 Overcast OVC007 10 10 100% 76.05 0.0
01 05:55 Calm 14.48 Overcast OVC007 10 10 100% 76.05 0.0
01 05:35 Calm 8.05 Fog/Mist OVC005 10 10 100% 76.05 0.0
01 05:15 Calm 1.61 Fog/Mist OVC004 10 10 100% 76.05 0.0
01 04:55 Calm 9.66 Fog/Mist BKN003 9 9 100% 76.02 0.0
01 04:35 Calm 11.27 Partly Cloudy SCT005 10 10 100% 76.02 0.0
01 04:15 Calm 14.48 Fair CLR 10 9 94% 76.02 0.0
01 03:55 Calm 16.09 Fair CLR 10 10 100% 76.02 0.0
01 03:35 Calm 16.09 Fair CLR 9 9 100% 76.02 0.0
01 03:15 Calm 16.09 Fair CLR 10 9 94% 76.02 0.0
01 02:55 Calm 14.48 Fair CLR 10 9 94% 76.02 0.0
01 02:35 Calm 16.09 Fair CLR 9 9 100% 76.02 0.0
01 02:15 Calm 14.48 Fair CLR 10 9 94% 76.05 0.0
01 01:55 Calm 16.09 Fair CLR 10 10 100% 76.05 0.0
01 01:35 Calm 16.09 Fair CLR 10 10 100% 76.07 0.0
01 01:15 Calm 16.09 Fair CLR 10 10 100% 76.07 0.0
01 00:55 Calm 12.87 Fair CLR 10 10 100% 76.07 0.0
01 00:35 Calm 16.09 Fair CLR 11 10 94% 76.07 0.0
01 00:15 Calm 16.09 Fair CLR 11 11 100% 76.07 0.0
30 23:55 Calm 16.09 Fair CLR 11 10 94% 76.05 0.0
30 23:35 Calm 16.09 Fair CLR 11 10 94% 76.05 0.0
30 23:15 Calm 12.87 Fair CLR 11 11 100% 76.05 0.0
30 22:55 Calm 16.09 Fair CLR 11 11 100% 76.05 0.0
30 22:35 Calm 16.09 Fair CLR 11 11 100% 76.05 0.0
30 22:15 Calm 16.09 Fair CLR 11 11 100% 76.05 0.0
30 21:55 Calm 16.09 Fair CLR 12 11 94% 76.05 0.0
30 21:35 NE 11 16.09 Fair CLR 13 11 88% 76.02 0.0
30 21:15 E 9 16.09 Fair CLR 13 11 88% 76.02 0.0
30 20:55 NE 13 16.09 Fair CLR 13 11 88% 76 0.0
30 20:35 S 17 16.09 Fair CLR 13 11 88% 76 0.0
30 20:15 E 9 16.09 Fair CLR 14 11 82% 76 0.0
30 19:55 S 7 16.09 Fair CLR 15 11 77% 75.97 0.0
30 19:35 Vrbl 9 16.09 Fair CLR 16 11 72% 75.97 0.0
30 19:15 Vrbl 7 16.09 Fair CLR 17 11 68% 75.95 0.0
30 18:55 Vrbl 9 16.09 Fair CLR 18 11 64% 75.95 0.0
30 18:35 Vrbl 6 G 20 16.09 Fair CLR 19 11 60% 75.97 0.0
30 18:15 Vrbl 7 G 20 16.09 Fair CLR 20 11 56% 75.97 0.0
30 17:55 Vrbl 11 G 26 16.09 Fair CLR 20 11 56% 75.95 0.0
30 17:35 S 19 16.09 Fair CLR 21 12 57% 75.95 0.0
Date Time (pdt) Wind (kph) Vis. (km) Weather Sky Cond. Air Dwpt Max. Min. Relative Humidity Wind Chill (°C) Heat Index (°C) altimeter (cm) sea level (mb) 1 hr 3 hr 6 hr
6 hour
Temperature (ºC) Pressure Precipitation (cm)